Terminal Aerodrome Forecast
Issued by NWS

Home | Current Version | Previous Version | Text Only | Print | Product List | Glossary Off
Versions: 1 2 3 4 5 6 7 8 9 10 11 12 13 14 15 16 17

000
FTUS43 KICT 170900 AAB
TAFCNU
TAF AMD
KCNU 170942Z 1710/1806 17005KT P6SM SCT010 BKN025
      TEMPO 1710/1714 4SM BR BKN007
     FM171500 19007KT P6SM VCTS BKN030CB
      TEMPO 1715/1718 OVC020CB
     FM172300 15006KT P6SM SCT035=

USA.gov is the U.S. government's official web portal to all federal, state and local government web resources and services.